El Jebel, Colorado
Current Conditions -  °F | °C
As of 4:53 PM on Monday 22 Dec 2014 (Local Time) from KASE Reporting Station
Overcast Overcast  
Wind Chill: 12°   Ceiling: 2100
Heat Index: 25°   Visibility: 7mi
Dew Point: 19°   Wind: 16mph
Humidity: 78%   Direction: 320°NW
Pressure: 29.78"   Gusts: 23mph
Location:  39.4°N, 107.09°W
Report Text: KASE 222353Z 32014G20KT 7SM FEW009 BKN021 OVC065 M04/M07 A2978 RMK AO2 PK WND 34026/2315 SNE44 SLP070 P0000 60001 T10391072 11006 21039 53022
Loading
Personal Weather Stations






























Interactive Weather Map New forecast layout! Learn more

10-Day Weather Forecast

Advertisements
Track Severe Weather on mobile